Time;durP1;ratioP1;P1;durP2;ratioP2;P2;SDS_P1;SDS_P2;PMS_P1;PMS_P2;Temp;Humidity;BMP_temperature;BMP_pressure;BME280_temperature;BME280_humidity;BME280_pressure;Samples;Min_cycle;Max_cycle;Signal;HPM_P1;HPM_P2
2022/08/05 00:01:20;;;;;;;10.73;1.38;;;;;;;11.75;71.34;101221.94;5031158;28;20493;-82
2022/08/05 00:03:47;;;;;;;7.95;1.27;;;;;;;11.73;71.62;101217.75;5041692;28;20100;-82
2022/08/05 00:06:13;;;;;;;4.10;0.93;;;;;;;11.76;72.00;101228.94;5052108;28;20036;-81
2022/08/05 00:08:39;;;;;;;5.53;1.13;;;;;;;11.79;71.25;101230.47;5050664;28;20065;-81
2022/08/05 00:11:11;;;;;;;8.73;1.15;;;;;;;11.79;71.44;101228.66;5049430;28;20375;-82
2022/08/05 00:13:39;;;;;;;10.20;1.58;;;;;;;11.75;71.29;101227.22;5050834;28;20045;-82
2022/08/05 00:16:07;;;;;;;8.40;1.35;;;;;;;11.71;71.17;101225.84;5049033;28;20040;-81
2022/08/05 00:18:33;;;;;;;7.85;1.20;;;;;;;11.68;71.33;101239.34;5050036;28;20033;-81
2022/08/05 00:20:59;;;;;;;9.38;1.23;;;;;;;11.64;71.28;101236.09;5051251;28;20044;-81
2022/08/05 00:23:25;;;;;;;3.83;1.13;;;;;;;11.63;71.50;101233.59;5041665;28;20488;-81
2022/08/05 00:25:51;;;;;;;4.68;1.02;;;;;;;11.58;71.84;101234.00;5055173;28;20032;-81
2022/08/05 00:28:16;;;;;;;5.55;1.10;;;;;;;11.59;71.47;101240.13;5056600;28;20458;-81
2022/08/05 00:30:42;;;;;;;8.98;1.30;;;;;;;11.59;71.79;101234.84;5051752;28;20047;-81
2022/08/05 00:33:10;;;;;;;11.20;1.67;;;;;;;11.59;71.66;101237.47;5050695;28;20060;-80
2022/08/05 00:35:35;;;;;;;12.82;1.30;;;;;;;11.53;71.41;101237.03;5052533;28;20029;-81
2022/08/05 00:38:01;;;;;;;6.13;1.25;;;;;;;11.48;71.41;101241.88;5049859;28;20044;-81
2022/08/05 00:40:27;;;;;;;9.88;1.40;;;;;;;11.44;71.97;101239.63;5064488;28;20040;-81
2022/08/05 00:42:58;;;;;;;6.40;1.40;;;;;;;11.40;72.16;101241.72;5041918;28;20114;-81
2022/08/05 00:45:24;;;;;;;9.98;1.40;;;;;;;11.37;72.15;101240.13;5042736;28;20032;-80
2022/08/05 00:47:50;;;;;;;4.35;1.10;;;;;;;11.34;71.97;101236.94;5052184;28;20025;-81
2022/08/05 00:50:16;;;;;;;7.00;1.48;;;;;;;11.34;72.47;101236.94;5043359;28;20058;-82
2022/08/05 00:52:42;;;;;;;8.82;1.50;;;;;;;11.29;72.43;101234.69;5046964;28;20465;-82
2022/08/05 00:55:08;;;;;;;8.40;1.52;;;;;;;11.29;72.43;101243.44;5045079;28;20033;-81
2022/08/05 00:57:33;;;;;;;7.50;1.95;;;;;;;11.31;72.61;101237.19;5050649;28;20087;-81
2022/08/05 00:59:59;;;;;;;10.00;1.25;;;;;;;11.30;72.49;101244.28;5054088;28;20037;-81
2022/08/05 01:02:25;;;;;;;6.05;1.73;;;;;;;11.29;72.99;101242.63;5064191;28;20455;-81
2022/08/05 01:04:51;;;;;;;8.98;1.38;;;;;;;11.31;73.21;101240.66;5064252;28;20033;-81
2022/08/05 01:07:17;;;;;;;6.75;1.10;;;;;;;11.31;73.20;101245.94;5043593;28;20055;-81
2022/08/05 01:09:43;;;;;;;8.38;1.55;;;;;;;11.29;73.42;101240.78;5043555;28;20032;-81
2022/08/05 01:12:13;;;;;;;10.07;2.22;;;;;;;11.32;73.73;101238.88;5049265;28;20517;-81
2022/08/05 01:15:04;;;;;;;7.45;1.48;;;;;;;11.28;73.79;101239.13;5046140;28;20037;-80
2022/08/05 01:17:44;;;;;;;9.95;1.48;;;;;;;11.26;73.60;101241.03;5041279;28;20037;-80
2022/08/05 01:20:49;;;;;;;7.35;1.40;;;;;;;11.21;73.95;101240.59;5053198;28;20520;-81
2022/08/05 01:23:37;;;;;;;7.53;1.40;;;;;;;11.21;74.46;101242.41;5030609;28;20042;-80
2022/08/05 01:26:25;;;;;;;10.18;1.63;;;;;;;11.16;74.77;101242.81;5049441;28;21111;-80
2022/08/05 01:28:59;;;;;;;9.23;1.40;;;;;;;11.21;74.75;101245.88;5029398;28;20375;-80
2022/08/05 01:31:32;;;;;;;5.65;1.63;;;;;;;11.26;75.03;101245.53;5046331;28;20044;-80
2022/08/05 01:34:04;;;;;;;8.10;1.52;;;;;;;11.27;74.79;101244.53;5048296;28;20037;-80
2022/08/05 01:36:41;;;;;;;6.75;1.30;;;;;;;11.27;74.61;101248.03;5052668;28;20041;-80
2022/08/05 01:39:08;;;;;;;7.30;1.13;;;;;;;11.25;75.08;101252.63;5060624;28;20025;-80
2022/08/05 01:41:36;;;;;;;5.07;0.93;;;;;;;11.24;75.07;101244.81;5041145;28;20173;-80
2022/08/05 01:44:05;;;;;;;6.63;1.20;;;;;;;11.25;75.05;101259.69;5052818;28;20497;-80
2022/08/05 01:46:33;;;;;;;7.38;1.35;;;;;;;11.25;75.16;101249.13;5048373;28;20398;-80
2022/08/05 01:49:02;;;;;;;6.85;1.15;;;;;;;11.31;75.31;101253.06;5044108;28;20116;-80
2022/08/05 01:51:32;;;;;;;5.03;1.20;;;;;;;11.31;75.45;101250.44;5045553;28;20036;-80
2022/08/05 01:54:00;;;;;;;9.82;1.52;;;;;;;11.28;75.44;101252.34;5048583;28;20033;-80
2022/08/05 01:56:29;;;;;;;8.95;1.60;;;;;;;11.24;75.63;101239.50;5065744;28;20128;-80
2022/08/05 01:58:56;;;;;;;6.57;1.65;;;;;;;11.23;75.95;101248.41;5053600;28;20063;-81
2022/08/05 02:01:24;;;;;;;5.53;1.02;;;;;;;11.21;75.51;101245.06;5023024;28;20120;-82
2022/08/05 02:03:52;;;;;;;8.32;1.30;;;;;;;11.16;76.16;101240.16;5042671;28;20067;-82
2022/08/05 02:06:18;;;;;;;7.53;1.10;;;;;;;11.16;76.36;101245.44;5037511;28;20025;-80
2022/08/05 02:08:45;;;;;;;9.65;1.20;;;;;;;11.12;76.37;101239.56;5044736;28;20033;-80
2022/08/05 02:11:12;;;;;;;4.03;1.00;;;;;;;11.11;76.71;101242.34;5044968;28;20478;-80
2022/08/05 02:13:50;;;;;;;6.78;1.77;;;;;;;10.98;76.76;101240.72;5050129;28;20040;-80
2022/08/05 02:16:38;;;;;;;6.97;1.15;;;;;;;10.93;77.28;101240.25;5063523;28;20046;-80
2022/08/05 02:19:42;;;;;;;11.27;1.45;;;;;;;10.82;77.41;101243.78;5081196;28;20029;-81
2022/08/05 02:22:15;;;;;;;9.35;1.30;;;;;;;10.77;77.63;101241.53;5048356;28;20025;-81
2022/08/05 02:24:46;;;;;;;5.95;1.30;;;;;;;10.73;77.79;101241.91;5045853;28;20029;-80
2022/08/05 02:27:14;;;;;;;5.28;1.10;;;;;;;10.71;77.93;101244.66;5043672;28;20091;-81
2022/08/05 02:29:43;;;;;;;3.67;1.13;;;;;;;10.71;78.19;101244.66;5047637;28;20495;-80
2022/08/05 02:32:10;;;;;;;8.07;1.20;;;;;;;10.66;78.12;101237.13;5046255;28;20482;-80
2022/08/05 02:34:36;;;;;;;4.28;1.33;;;;;;;10.63;78.43;101231.22;5036823;28;20113;-81
2022/08/05 02:37:07;;;;;;;12.13;1.45;;;;;;;10.63;78.38;101249.75;5038047;28;20104;-81
2022/08/05 02:39:36;;;;;;;8.40;0.95;;;;;;;10.62;78.62;101238.31;5039554;28;20097;-80
2022/08/05 02:42:04;;;;;;;6.25;1.33;;;;;;;10.62;78.37;101232.22;5050633;28;20094;-80
2022/08/05 02:44:33;;;;;;;6.20;1.45;;;;;;;10.58;78.67;101228.13;5052030;28;20541;-81
2022/08/05 02:47:00;;;;;;;12.45;1.83;;;;;;;10.51;78.85;101225.97;5042759;28;20531;-81
2022/08/05 02:49:30;;;;;;;5.50;1.33;;;;;;;10.48;79.25;101228.88;5042814;28;20438;-80
2022/08/05 02:51:57;;;;;;;6.97;1.25;;;;;;;10.47;79.16;101235.13;5045206;28;20025;-80
2022/08/05 02:54:23;;;;;;;3.50;1.20;;;;;;;10.45;79.30;101226.44;5045868;28;20040;-80
2022/08/05 02:56:50;;;;;;;4.78;1.02;;;;;;;10.46;79.19;101229.94;5022348;28;20033;-81
2022/08/05 02:59:19;;;;;;;7.22;1.13;;;;;;;10.49;79.09;101233.22;5045606;28;20052;-80
2022/08/05 03:01:50;;;;;;;8.02;1.30;;;;;;;10.52;79.25;101232.97;5078638;28;20020;-80
2022/08/05 03:04:18;;;;;;;10.13;1.52;;;;;;;10.54;79.50;101228.38;5044612;28;20033;-81
2022/08/05 03:06:44;;;;;;;4.13;1.10;;;;;;;10.59;79.56;101230.63;5048695;28;20029;-80
2022/08/05 03:09:12;;;;;;;7.30;1.23;;;;;;;10.62;79.38;101229.56;5047286;28;20409;-80
2022/08/05 03:11:41;;;;;;;8.05;1.15;;;;;;;10.63;79.57;101228.59;5050454;28;20052;-80
2022/08/05 03:14:07;;;;;;;7.85;1.17;;;;;;;10.64;80.02;101231.09;5037358;28;20045;-80
2022/08/05 03:16:33;;;;;;;11.48;1.38;;;;;;;10.63;79.89;101228.59;5067752;28;20038;-80
2022/08/05 03:19:00;;;;;;;4.97;0.85;;;;;;;10.63;80.06;101218.00;5037163;28;20082;-80
2022/08/05 03:21:26;;;;;;;8.18;1.08;;;;;;;10.64;79.94;101238.19;5044996;28;20052;-81
2022/08/05 03:23:53;;;;;;;7.43;1.40;;;;;;;10.60;80.01;101234.97;5039248;28;20452;-80
2022/08/05 03:26:18;;;;;;;9.95;1.17;;;;;;;10.59;80.11;101232.47;5079271;28;20119;-80
2022/08/05 03:28:45;;;;;;;5.35;1.10;;;;;;;10.55;80.28;101231.84;5076699;28;20115;-81
2022/08/05 03:31:11;;;;;;;4.43;1.08;;;;;;;10.53;80.73;101239.06;5041155;28;20124;-80
2022/08/05 03:33:38;;;;;;;11.48;1.60;;;;;;;10.51;81.01;101231.25;5048429;28;20040;-80
2022/08/05 03:36:04;;;;;;;7.25;1.30;;;;;;;10.52;81.40;101235.59;5048654;28;20033;-80
2022/08/05 03:38:30;;;;;;;7.38;1.20;;;;;;;10.50;81.47;101232.22;5048184;28;20033;-80
2022/08/05 03:40:56;;;;;;;6.38;1.30;;;;;;;10.48;81.79;101228.03;5046785;28;20031;-80
2022/08/05 03:43:25;;;;;;;5.03;1.10;;;;;;;10.49;82.17;101229.72;5040427;28;20051;-80
2022/08/05 03:45:53;;;;;;;9.25;1.63;;;;;;;10.43;82.76;101231.84;5049987;28;20082;-80
2022/08/05 03:48:20;;;;;;;4.40;0.80;;;;;;;10.40;83.05;101229.47;5074617;28;20037;-80
2022/08/05 03:50:59;;;;;;;3.08;0.80;;;;;;;10.41;83.63;101225.88;5044757;28;20043;-80
2022/08/05 03:53:34;;;;;;;7.18;0.80;;;;;;;10.41;84.03;101225.88;5047042;28;20397;-81
2022/08/05 03:56:16;;;;;;;5.63;0.73;;;;;;;10.41;84.29;101228.50;5042835;28;20041;-80
2022/08/05 03:58:45;;;;;;;6.50;1.10;;;;;;;10.46;84.37;101230.81;5038544;28;20481;-80
2022/08/05 04:01:13;;;;;;;9.23;1.00;;;;;;;10.49;84.41;101229.72;5042785;28;20025;-80
2022/08/05 04:03:43;;;;;;;7.53;1.20;;;;;;;10.52;84.46;101234.75;5052059;28;20047;-80
2022/08/05 04:06:09;;;;;;;8.73;1.30;;;;;;;10.54;84.54;101232.84;5047991;28;20029;-80
2022/08/05 04:08:36;;;;;;;6.95;0.95;;;;;;;10.57;84.75;101226.44;5044039;28;20543;-80
2022/08/05 04:11:03;;;;;;;8.95;1.55;;;;;;;10.60;84.57;101228.84;5046548;28;20060;-80
2022/08/05 04:13:30;;;;;;;9.35;1.23;;;;;;;10.63;84.45;101229.44;5038668;28;20558;-80
2022/08/05 04:15:56;;;;;;;7.40;1.10;;;;;;;10.66;84.67;101226.53;5050248;28;20028;-80
2022/08/05 04:18:25;;;;;;;6.80;0.90;;;;;;;10.71;84.37;101231.44;5045990;28;20393;-80
2022/08/05 04:20:55;;;;;;;10.00;0.95;;;;;;;10.71;84.49;101226.16;5043053;28;20033;-81
2022/08/05 04:23:26;;;;;;;11.73;1.73;;;;;;;10.73;84.25;101228.69;5045817;28;20037;-82
2022/08/05 04:25:53;;;;;;;4.00;0.68;;;;;;;10.76;83.99;101229.28;5048365;28;20224;-80
2022/08/05 04:28:19;;;;;;;9.20;0.80;;;;;;;10.78;83.47;101223.84;5051712;28;20033;-80
2022/08/05 04:30:46;;;;;;;4.07;0.70;;;;;;;10.64;83.23;101239.03;5076873;28;20028;-80
2022/08/05 04:33:13;;;;;;;6.55;0.88;;;;;;;10.48;82.52;101241.25;5030424;28;20040;-80
2022/08/05 04:35:39;;;;;;;6.45;0.98;;;;;;;10.25;82.47;101236.81;5048273;28;20826;-81
2022/08/05 04:38:05;;;;;;;5.00;0.73;;;;;;;10.01;82.67;101234.31;5053711;28;20033;-80
2022/08/05 04:40:35;;;;;;;6.65;1.10;;;;;;;9.89;83.04;101238.78;5049752;28;20079;-80
2022/08/05 04:43:02;;;;;;;6.05;1.13;;;;;;;9.82;83.15;101241.06;5049402;28;20220;-80
2022/08/05 04:45:28;;;;;;;8.48;0.98;;;;;;;9.78;82.90;101244.88;5046887;28;20131;-80
2022/08/05 04:48:01;;;;;;;5.05;0.88;;;;;;;9.67;82.67;101243.91;5051762;28;20111;-81
2022/08/05 04:50:27;;;;;;;4.88;1.00;;;;;;;9.64;83.00;101244.16;5057232;28;20029;-80
2022/08/05 04:53:00;;;;;;;5.65;1.05;;;;;;;9.58;82.87;101241.13;5064526;28;20028;-81
2022/08/05 04:55:26;;;;;;;11.85;1.30;;;;;;;9.49;82.84;101238.25;5039595;28;20040;-80
2022/08/05 04:57:52;;;;;;;6.57;0.88;;;;;;;9.41;83.11;101244.09;5052269;28;20538;-80
2022/08/05 05:00:18;;;;;;;5.22;0.77;;;;;;;9.38;83.15;101254.06;5045966;28;20056;-82
2022/08/05 05:02:44;;;;;;;4.30;0.90;;;;;;;9.42;83.65;101258.16;5046672;28;20527;-82
2022/08/05 05:05:10;;;;;;;4.18;0.82;;;;;;;9.38;83.03;101257.53;5044157;28;20037;-80
2022/08/05 05:07:36;;;;;;;5.72;1.02;;;;;;;9.34;82.95;101256.09;5046104;28;20029;-80
2022/08/05 05:10:04;;;;;;;4.80;0.85;;;;;;;9.32;82.76;101260.63;5047593;28;20032;-79
2022/08/05 05:12:31;;;;;;;4.30;0.95;;;;;;;9.32;82.69;101259.81;5045031;28;20057;-80
2022/08/05 05:14:57;;;;;;;2.95;0.75;;;;;;;9.35;82.44;101259.59;5044143;28;20067;-80
2022/08/05 05:17:23;;;;;;;5.28;1.27;;;;;;;9.34;82.12;101266.66;5040528;28;20463;-80
2022/08/05 05:19:48;;;;;;;8.60;1.20;;;;;;;9.36;82.17;101267.38;5051998;28;20040;-80
2022/08/05 05:22:14;;;;;;;5.03;0.73;;;;;;;9.38;82.27;101267.25;5041090;28;20036;-80
2022/08/05 05:24:40;;;;;;;7.72;1.08;;;;;;;9.39;82.11;101269.78;5051755;28;20070;-80
2022/08/05 05:27:06;;;;;;;3.83;0.68;;;;;;;9.30;82.14;101279.22;5053997;28;20028;-80
2022/08/05 05:29:32;;;;;;;8.32;1.10;;;;;;;9.10;82.37;101279.88;5041334;28;20036;-80
2022/08/05 05:31:57;;;;;;;4.25;0.82;;;;;;;9.02;83.18;101286.56;5041237;28;20104;-80
2022/08/05 05:34:23;;;;;;;4.50;1.15;;;;;;;8.98;83.54;101271.09;5048212;28;20052;-80
2022/08/05 05:36:49;;;;;;;3.13;0.68;;;;;;;9.02;83.59;101283.94;5042638;28;20025;-80
2022/08/05 05:39:16;;;;;;;6.05;0.90;;;;;;;9.14;83.23;101282.16;5042227;28;20029;-80
2022/08/05 05:41:41;;;;;;;3.47;0.75;;;;;;;9.29;83.19;101280.19;5040788;28;20550;-80
2022/08/05 05:44:08;;;;;;;3.70;1.02;;;;;;;9.40;83.38;101289.06;5051771;28;20120;-80
2022/08/05 05:46:34;;;;;;;6.43;0.90;;;;;;;9.55;83.48;101293.22;5039765;28;20390;-80
2022/08/05 05:49:00;;;;;;;2.55;0.77;;;;;;;9.68;83.38;101284.38;5048062;28;20048;-80
2022/08/05 05:51:26;;;;;;;6.47;0.80;;;;;;;9.74;83.49;101290.97;5041888;28;20041;-81
2022/08/05 05:53:53;;;;;;;6.30;1.00;;;;;;;9.78;83.84;101295.88;5043588;28;20036;-80
2022/08/05 05:56:19;;;;;;;6.57;0.98;;;;;;;9.81;83.94;101292.16;5047975;28;20032;-80
2022/08/05 05:58:49;;;;;;;5.80;0.70;;;;;;;9.83;83.94;101303.44;5042236;28;20040;-80
2022/08/05 06:01:15;;;;;;;5.30;0.98;;;;;;;9.85;84.74;101304.19;5079039;28;20025;-80
2022/08/05 06:03:41;;;;;;;4.43;0.98;;;;;;;9.87;84.56;101302.28;5036982;28;20495;-80
2022/08/05 06:06:07;;;;;;;6.65;0.90;;;;;;;9.88;84.88;101311.88;5078105;28;20037;-80
2022/08/05 06:08:33;;;;;;;7.50;0.77;;;;;;;9.92;84.95;101309.84;5042845;28;20025;-80
2022/08/05 06:10:59;;;;;;;9.40;1.27;;;;;;;9.96;85.40;101310.41;5055767;28;20552;-80
2022/08/05 06:13:25;;;;;;;6.47;1.17;;;;;;;10.00;85.28;101312.69;5050173;28;20099;-80
2022/08/05 06:15:51;;;;;;;4.45;0.75;;;;;;;10.04;85.52;101318.59;5047043;28;20029;-80
2022/08/05 06:18:17;;;;;;;10.00;0.80;;;;;;;10.10;85.64;101315.47;5059971;28;20358;-80
2022/08/05 06:20:43;;;;;;;4.78;1.10;;;;;;;10.15;85.70;101315.13;5049720;28;20033;-80
2022/08/05 06:23:08;;;;;;;2.50;0.75;;;;;;;10.20;85.55;101317.41;5042105;28;20418;-80
2022/08/05 06:25:34;;;;;;;10.80;1.05;;;;;;;10.23;85.31;101317.16;5069046;28;20470;-80
2022/08/05 06:28:00;;;;;;;7.45;1.25;;;;;;;10.25;85.39;101313.44;5066302;28;20453;-80
2022/08/05 06:30:26;;;;;;;4.80;0.85;;;;;;;10.26;85.40;101316.91;5043589;28;20025;-80
2022/08/05 06:32:52;;;;;;;6.03;1.00;;;;;;;10.32;85.51;101318.25;5040690;28;20027;-80
2022/08/05 06:35:18;;;;;;;7.45;2.78;;;;;;;10.36;85.67;101322.31;5046207;28;20063;-80
2022/08/05 06:37:44;;;;;;;8.73;1.10;;;;;;;10.42;85.71;101317.41;5035562;28;20036;-80
2022/08/05 06:40:11;;;;;;;5.13;1.00;;;;;;;10.47;86.04;101322.34;5053147;28;20029;-79
2022/08/05 06:42:37;;;;;;;6.78;0.70;;;;;;;10.50;86.17;101324.75;5055984;28;20124;-80
2022/08/05 06:45:04;;;;;;;6.22;0.73;;;;;;;10.54;86.33;101325.34;5013438;28;20048;-80
2022/08/05 06:47:30;;;;;;;3.88;0.95;;;;;;;10.58;86.74;101320.63;5040870;28;20041;-80
2022/08/05 06:49:55;;;;;;;9.85;1.92;;;;;;;10.62;86.91;101319.44;5044186;28;20029;-80
2022/08/05 06:52:21;;;;;;;6.85;0.82;;;;;;;10.65;87.34;101335.06;5065666;28;20033;-80
2022/08/05 06:54:47;;;;;;;6.80;1.05;;;;;;;10.68;87.41;101332.19;5047136;28;20033;-80
2022/08/05 06:57:14;;;;;;;9.00;1.38;;;;;;;10.74;87.95;101336.13;5067194;28;20045;-80
2022/08/05 06:59:40;;;;;;;6.75;1.20;;;;;;;10.83;87.67;101329.25;5051712;28;20115;-80
2022/08/05 07:02:06;;;;;;;5.68;1.00;;;;;;;10.94;88.08;101331.03;5039663;28;20458;-80
2022/08/05 07:04:32;;;;;;;9.65;1.45;;;;;;;11.01;88.41;101335.69;5053280;28;20033;-80
2022/08/05 07:06:58;;;;;;;5.70;1.10;;;;;;;11.10;89.00;101336.75;5057720;28;20440;-79
2022/08/05 07:09:24;;;;;;;7.45;1.23;;;;;;;11.20;88.76;101336.81;5055499;28;20029;-80
2022/08/05 07:11:50;;;;;;;7.18;1.20;;;;;;;11.27;88.68;101335.38;5064529;28;20501;-80
2022/08/05 07:17:01;;;;;;;6.78;1.27;;;;;;;11.44;88.93;101345.50;5040248;28;20025;-80
2022/08/05 07:19:27;;;;;;;8.82;0.80;;;;;;;11.50;89.26;101343.19;5047344;28;20111;-80
2022/08/05 07:21:54;;;;;;;5.82;1.23;;;;;;;11.59;89.43;101346.03;5036169;28;20111;-80
2022/08/05 07:24:20;;;;;;;8.05;1.33;;;;;;;11.67;89.43;101346.25;5063978;28;20088;-80
2022/08/05 07:26:47;;;;;;;7.40;1.13;;;;;;;11.82;90.28;101349.41;5044442;28;20025;-80
2022/08/05 07:29:13;;;;;;;6.35;1.20;;;;;;;11.97;90.77;101363.16;5044914;28;20045;-80
2022/08/05 07:31:40;;;;;;;9.38;1.38;;;;;;;12.09;91.24;101360.47;5051391;28;20032;-80
2022/08/05 07:34:05;;;;;;;11.77;2.10;;;;;;;12.20;91.11;101356.88;5046875;28;20516;-80
2022/08/05 07:36:32;;;;;;;6.10;1.38;;;;;;;12.28;91.56;101367.66;5043604;28;20112;-80
2022/08/05 07:39:04;;;;;;;12.52;1.67;;;;;;;12.35;91.59;101362.66;5046743;28;20033;-80
2022/08/05 07:41:30;;;;;;;12.65;1.73;;;;;;;12.39;91.97;101362.25;5043866;28;20090;-80
2022/08/05 07:43:57;;;;;;;3.92;0.80;;;;;;;12.48;91.72;101360.63;5043284;28;20095;-80
2022/08/05 07:46:25;;;;;;;10.02;1.40;;;;;;;12.57;91.89;101368.72;5049968;28;20033;-80
2022/08/05 07:48:52;;;;;;;9.52;1.35;;;;;;;12.60;91.31;101368.47;5050926;28;20486;-80
2022/08/05 07:51:18;;;;;;;12.32;1.20;;;;;;;12.57;91.06;101368.72;5047838;28;20029;-80
2022/08/05 07:53:44;;;;;;;8.95;0.88;;;;;;;12.53;90.30;101370.84;5036345;28;20041;-80
2022/08/05 07:56:10;;;;;;;4.07;1.00;;;;;;;12.49;90.02;101378.22;5076403;28;20083;-80
2022/08/05 07:58:36;;;;;;;4.93;1.23;;;;;;;12.50;89.80;101371.09;5049578;28;20038;-80
2022/08/05 08:01:01;;;;;;;8.43;1.27;;;;;;;12.51;89.44;101373.63;5043007;28;20034;-80
2022/08/05 08:03:27;;;;;;;6.65;1.45;;;;;;;12.52;88.43;101377.94;5057735;28;20071;-80
2022/08/05 08:05:53;;;;;;;8.35;1.38;;;;;;;12.53;88.40;101379.59;5046063;28;20103;-80
2022/08/05 08:08:19;;;;;;;6.75;0.80;;;;;;;12.56;87.78;101378.53;5047714;28;20470;-79
2022/08/05 08:10:45;;;;;;;5.20;0.80;;;;;;;12.53;87.33;101384.09;5029623;28;20410;-80
2022/08/05 08:13:11;;;;;;;11.90;0.82;;;;;;;12.49;86.75;101383.50;5061232;28;20116;-80
2022/08/05 08:15:37;;;;;;;4.57;1.10;;;;;;;12.57;86.85;101382.00;5048268;28;20120;-80
2022/08/05 08:18:03;;;;;;;10.68;1.20;;;;;;;12.69;86.81;101382.75;5046902;28;20112;-80
2022/08/05 08:20:29;;;;;;;9.20;1.08;;;;;;;12.88;86.66;101377.47;5058333;28;20055;-80
2022/08/05 08:22:58;;;;;;;10.70;0.82;;;;;;;13.03;85.83;101382.38;5044852;28;20028;-80
2022/08/05 08:25:25;;;;;;;3.72;0.70;;;;;;;13.11;84.47;101392.31;5046183;28;20041;-80
2022/08/05 08:27:51;;;;;;;5.07;1.02;;;;;;;13.08;83.48;101389.94;5050249;28;20086;-80
2022/08/05 08:30:17;;;;;;;4.95;0.75;;;;;;;13.12;83.66;101394.00;5051186;28;21731;-79
2022/08/05 08:32:43;;;;;;;7.82;1.70;;;;;;;13.17;83.40;101388.28;5053575;28;20044;-80
2022/08/05 08:35:09;;;;;;;5.32;0.63;;;;;;;13.21;82.92;101402.94;5044352;28;20028;-80
2022/08/05 08:37:35;;;;;;;9.25;1.00;;;;;;;13.25;83.00;101397.22;5049569;28;20063;-79
2022/08/05 08:40:01;;;;;;;5.57;0.63;;;;;;;13.32;82.78;101401.97;5070461;28;20064;-80
2022/08/05 08:42:27;;;;;;;5.80;1.25;;;;;;;13.37;82.41;101399.75;5049281;28;20024;-80
2022/08/05 08:44:55;;;;;;;7.40;0.85;;;;;;;13.45;82.13;101409.69;5051755;28;20410;-80
2022/08/05 08:47:24;;;;;;;4.80;0.65;;;;;;;13.51;81.78;101406.50;5050493;28;20035;-80
2022/08/05 08:49:51;;;;;;;10.18;1.63;;;;;;;13.47;81.09;101403.25;5043526;28;20043;-81
2022/08/05 08:52:23;;;;;;;4.20;0.77;;;;;;;13.55;81.07;101405.25;5047724;28;20029;-82
2022/08/05 08:54:52;;;;;;;3.63;0.60;;;;;;;13.62;81.11;101408.16;5049456;28;20099;-80
2022/08/05 08:57:18;;;;;;;5.10;1.10;;;;;;;13.66;80.04;101414.88;5080635;28;20448;-80
2022/08/05 08:59:45;;;;;;;4.25;0.88;;;;;;;13.70;79.76;101413.63;5051074;28;20484;-80
2022/08/05 09:02:11;;;;;;;4.57;0.77;;;;;;;13.75;79.63;101415.84;5053769;28;20029;-80
2022/08/05 09:04:37;;;;;;;5.32;0.73;;;;;;;13.83;79.49;101412.47;5052681;28;20115;-81
2022/08/05 09:07:07;;;;;;;5.60;0.80;;;;;;;13.93;78.86;101420.44;5045963;28;20064;-81
2022/08/05 09:09:34;;;;;;;4.05;0.75;;;;;;;13.94;78.33;101415.00;5049771;28;20029;-81
2022/08/05 09:12:03;;;;;;;5.32;0.70;;;;;;;13.99;78.09;101419.88;5046203;28;20036;-81
2022/08/05 09:14:31;;;;;;;5.28;0.98;;;;;;;14.02;77.43;101428.41;5057564;28;20032;-81
2022/08/05 09:16:59;;;;;;;3.70;0.43;;;;;;;14.03;76.99;101431.88;5056096;28;20020;-81
2022/08/05 09:19:25;;;;;;;5.30;0.73;;;;;;;14.08;77.08;101428.84;5062119;28;20029;-81
2022/08/05 09:21:50;;;;;;;5.43;0.50;;;;;;;14.16;76.33;101436.91;5053802;28;20025;-80
2022/08/05 09:24:16;;;;;;;6.95;0.75;;;;;;;14.21;75.79;101439.13;5035248;28;20504;-80
2022/08/05 09:26:49;;;;;;;7.97;0.85;;;;;;;14.26;75.49;101442.19;5044639;28;20035;-80
2022/08/05 09:29:15;;;;;;;7.25;1.25;;;;;;;14.30;74.95;101443.56;5039623;28;20050;-80
2022/08/05 09:31:42;;;;;;;4.97;0.77;;;;;;;14.41;74.57;101439.94;5051695;28;20059;-80
2022/08/05 09:34:10;;;;;;;4.03;0.70;;;;;;;14.54;73.82;101442.25;5072541;28;20132;-80
2022/08/05 09:36:51;;;;;;;3.17;0.50;;;;;;;14.55;72.09;101443.09;5053123;28;20424;-80
2022/08/05 09:39:18;;;;;;;5.82;1.02;;;;;;;14.64;72.59;101456.38;5049937;28;20039;-81
2022/08/05 09:41:58;;;;;;;5.63;0.55;;;;;;;14.68;70.97;101453.41;5056703;28;20024;-80
2022/08/05 09:44:38;;;;;;;3.30;0.80;;;;;;;14.76;71.28;101451.66;5048523;28;20056;-81
2022/08/05 09:47:26;;;;;;;4.68;0.68;;;;;;;14.92;71.16;101454.72;5040701;28;20048;-80
2022/08/05 09:49:56;;;;;;;7.15;0.75;;;;;;;15.00;70.87;101453.00;5068648;28;20086;-81
2022/08/05 09:52:27;;;;;;;3.22;0.65;;;;;;;15.05;70.39;101449.06;5082078;28;20029;-80
2022/08/05 09:55:08;;;;;;;5.95;1.10;;;;;;;15.11;70.08;101446.63;5059912;28;20037;-80
2022/08/05 09:57:46;;;;;;;2.47;0.70;;;;;;;15.17;69.32;101453.19;5030718;28;20124;-80
2022/08/05 10:00:23;;;;;;;3.53;0.50;;;;;;;15.18;68.61;101454.03;5031425;28;20668;-80
2022/08/05 10:02:54;;;;;;;3.35;0.90;;;;;;;15.03;68.26;101459.84;5048214;28;20063;-80
2022/08/05 10:05:28;;;;;;;4.40;0.70;;;;;;;14.96;68.34;101472.06;5047570;28;20033;-82
2022/08/05 10:08:02;;;;;;;3.60;0.68;;;;;;;14.82;67.92;101460.09;5048935;28;20537;-82
2022/08/05 10:10:38;;;;;;;2.83;0.40;;;;;;;14.68;68.01;101462.25;5045904;28;20139;-80
2022/08/05 10:13:05;;;;;;;5.85;0.47;;;;;;;14.60;68.23;101464.78;5048257;28;20489;-81
2022/08/05 10:15:34;;;;;;;2.20;0.40;;;;;;;14.63;67.94;101465.34;5046459;28;20037;-82
2022/08/05 10:18:21;;;;;;;4.38;0.57;;;;;;;14.60;67.26;101464.78;5039510;28;20028;-82
2022/08/05 10:20:51;;;;;;;3.80;0.70;;;;;;;14.64;67.94;101479.47;5053199;28;20076;-80
2022/08/05 10:23:28;;;;;;;3.95;0.70;;;;;;;14.61;68.71;101480.59;5044786;28;20102;-80
2022/08/05 10:25:56;;;;;;;5.30;0.80;;;;;;;14.63;69.02;101480.47;5048726;28;20047;-80
2022/08/05 10:28:23;;;;;;;3.20;0.70;;;;;;;14.61;68.79;101474.44;5079277;28;20103;-81
2022/08/05 10:30:52;;;;;;;2.33;0.40;;;;;;;14.64;69.23;101479.47;5056407;28;20049;-81
2022/08/05 10:33:19;;;;;;;4.82;0.50;;;;;;;14.72;69.48;101486.72;5050464;28;20115;-81
2022/08/05 10:35:45;;;;;;;4.63;0.60;;;;;;;14.72;69.27;101486.72;5047358;28;20036;-81
2022/08/05 10:38:13;;;;;;;2.92;0.70;;;;;;;14.77;69.20;101487.13;5049576;28;20024;-81
2022/08/05 10:40:51;;;;;;;3.47;0.70;;;;;;;14.94;69.69;101492.69;5047731;28;20416;-82
2022/08/05 10:43:46;;;;;;;11.00;0.98;;;;;;;15.17;69.74;101474.50;5062408;28;20033;-82
2022/08/05 10:46:15;;;;;;;3.33;0.60;;;;;;;15.50;69.32;101482.81;5077209;28;20033;-81
2022/08/05 10:48:46;;;;;;;3.90;0.50;;;;;;;15.53;67.72;101489.66;5046204;28;20483;-81
2022/08/05 10:51:18;;;;;;;5.13;0.60;;;;;;;15.46;67.35;101488.59;5046433;28;20029;-81
2022/08/05 10:53:49;;;;;;;4.05;0.63;;;;;;;15.45;67.31;101485.09;5048167;28;20037;-80
2022/08/05 10:56:18;;;;;;;5.20;0.90;;;;;;;15.54;67.15;101482.53;5048090;28;20043;-81
2022/08/05 10:58:54;;;;;;;4.35;0.70;;;;;;;15.61;66.71;101488.91;5046167;28;20104;-81
2022/08/05 11:01:29;;;;;;;;;;;;;;;15.48;66.69;101482.13;5047877;28;20035;-81
2022/08/05 11:04:13;;;;;;;6.93;1.13;;;;;;;15.66;66.43;101488.44;5047314;28;19919;-81
2022/08/05 11:07:03;;;;;;;7.20;0.80;;;;;;;15.69;65.62;101491.66;5041009;28;20031;-80
2022/08/05 11:09:41;;;;;;;6.25;0.90;;;;;;;15.77;65.50;101493.56;5045020;28;20107;-80
2022/08/05 11:12:23;;;;;;;3.78;0.63;;;;;;;15.80;64.95;101497.75;5075535;28;20081;-81
2022/08/05 11:15:24;;;;;;;6.20;0.90;;;;;;;15.74;64.66;101500.03;5044681;28;20389;-80
2022/08/05 11:17:54;;;;;;;2.78;0.65;;;;;;;15.68;65.11;101499.81;5044130;28;20036;-80
2022/08/05 11:20:46;;;;;;;6.50;1.30;;;;;;;15.63;65.72;101498.44;5046312;28;20056;-81
2022/08/05 11:23:33;;;;;;;3.97;0.57;;;;;;;15.57;65.70;101512.38;5058322;28;20025;-81
2022/08/05 11:26:09;;;;;;;2.60;0.43;;;;;;;15.61;65.91;101502.22;5050570;28;20056;-82
2022/08/05 11:28:34;;;;;;;7.50;0.50;;;;;;;15.55;65.65;101513.50;5048124;28;20378;-82
2022/08/05 11:31:00;;;;;;;3.13;0.55;;;;;;;15.47;65.56;101516.91;5047745;28;20048;-80
2022/08/05 11:33:37;;;;;;;2.33;0.60;;;;;;;15.45;65.43;101516.25;5049122;28;20094;-81
2022/08/05 11:36:08;;;;;;;4.65;0.60;;;;;;;15.36;65.83;101518.81;5045736;28;20095;-80
2022/08/05 11:38:40;;;;;;;7.55;0.90;;;;;;;15.33;66.04;101518.25;5044809;28;20033;-81